Time;durP1;ratioP1;P1;durP2;ratioP2;P2;SDS_P1;SDS_P2;PMS_P1;PMS_P2;Temp;Humidity;BMP_temperature;BMP_pressure;BME280_temperature;BME280_humidity;BME280_pressure;Samples;Min_cycle;Max_cycle;Signal;HPM_P1;HPM_P2
2022/03/13 00:00:50;;;;;;;10.00;9.70;;;2.40;92.40;;;;;;5002068;28;20239;-84
2022/03/13 00:03:22;;;;;;;10.10;9.80;;;2.40;92.30;;;;;;5003695;28;20238;-86
2022/03/13 00:05:58;;;;;;;9.97;9.67;;;2.30;92.60;;;;;;5001885;28;20229;-83
2022/03/13 00:08:37;;;;;;;9.67;9.37;;;2.30;92.60;;;;;;5002566;28;20302;-83
2022/03/13 00:11:25;;;;;;;9.60;9.30;;;2.20;92.70;;;;;;5002304;28;20243;-81
2022/03/13 00:13:53;;;;;;;9.70;9.40;;;2.20;92.80;;;;;;5001802;28;20327;-82
2022/03/13 00:17:15;;;;;;;9.93;9.63;;;2.10;92.60;;;;;;5002921;28;21198;-82
2022/03/13 00:19:53;;;;;;;9.70;9.40;;;2.20;92.60;;;;;;5003415;28;20233;-83
2022/03/13 00:22:23;;;;;;;10.00;9.70;;;2.20;92.70;;;;;;5001671;28;20311;-81
2022/03/13 00:24:54;;;;;;;9.70;9.40;;;2.20;92.70;;;;;;5001324;28;20243;-80
2022/03/13 00:27:23;;;;;;;9.77;9.47;;;2.20;92.60;;;;;;5004577;28;20235;-81
2022/03/13 00:29:51;;;;;;;9.97;9.67;;;2.30;92.60;;;;;;5004963;28;20920;-81
2022/03/13 00:32:21;;;;;;;10.10;9.80;;;2.30;92.60;;;;;;5005345;28;20243;-83
2022/03/13 00:34:50;;;;;;;10.00;9.70;;;2.30;92.40;;;;;;5005160;28;20252;-82
2022/03/13 00:37:19;;;;;;;9.80;9.50;;;2.30;92.40;;;;;;5004654;28;20236;-81
2022/03/13 00:39:50;;;;;;;9.80;9.50;;;2.40;92.60;;;;;;5005666;28;20233;-81
2022/03/13 00:42:20;;;;;;;10.00;9.70;;;2.40;93.20;;;;;;5005684;28;20288;-81
2022/03/13 00:44:49;;;;;;;9.80;9.50;;;2.40;92.90;;;;;;5044195;23;20233;-81
2022/03/13 00:47:17;;;;;;;9.73;9.43;;;2.40;93.20;;;;;;5027772;28;20244;-79
2022/03/13 00:49:44;;;;;;;9.83;9.53;;;2.40;93.60;;;;;;5027417;28;20220;-80
2022/03/13 00:52:12;;;;;;;9.90;9.60;;;2.30;93.60;;;;;;5025476;28;20295;-81
2022/03/13 00:54:40;;;;;;;9.80;9.50;;;2.30;93.10;;;;;;5025711;28;20267;-81
2022/03/13 00:57:08;;;;;;;9.60;9.30;;;2.30;93.50;;;;;;5004642;28;20225;-80
2022/03/13 00:59:37;;;;;;;9.70;9.40;;;2.30;93.50;;;;;;5005023;28;20233;-81
2022/03/13 01:02:05;;;;;;;9.57;9.27;;;2.20;93.50;;;;;;5004586;28;21056;-81
2022/03/13 01:04:33;;;;;;;9.53;9.23;;;2.20;93.80;;;;;;5005236;28;20244;-80
2022/03/13 01:07:00;;;;;;;9.80;9.50;;;2.10;93.70;;;;;;5004206;28;20301;-81
2022/03/13 01:09:28;;;;;;;9.77;9.47;;;2.10;93.90;;;;;;5004909;28;20229;-81
2022/03/13 01:11:56;;;;;;;10.00;9.70;;;2.00;94.60;;;;;;5004530;28;20271;-81
2022/03/13 01:14:24;;;;;;;10.20;9.90;;;2.00;94.60;;;;;;5001795;28;20233;-81
2022/03/13 01:17:02;;;;;;;9.93;9.63;;;1.90;94.50;;;;;;5009216;28;20225;-81
2022/03/13 01:19:30;;;;;;;10.00;9.70;;;1.80;94.70;;;;;;5005839;28;20233;-81
2022/03/13 01:21:58;;;;;;;10.10;9.80;;;1.60;94.50;;;;;;5005125;28;20232;-80
2022/03/13 01:24:31;;;;;;;9.87;9.57;;;1.60;94.40;;;;;;5004662;28;20831;-80
2022/03/13 01:27:02;;;;;;;10.07;9.77;;;1.50;94.20;;;;;;5004492;28;20258;-80
2022/03/13 01:29:32;;;;;;;9.90;9.60;;;1.40;95.00;;;;;;5004441;28;20308;-81
2022/03/13 01:32:01;;;;;;;10.00;9.70;;;1.40;95.00;;;;;;5004745;28;20291;-81
2022/03/13 01:34:48;;;;;;;9.73;9.43;;;1.30;94.30;;;;;;5005130;28;20269;-81
2022/03/13 01:37:32;;;;;;;9.80;9.50;;;1.30;94.50;;;;;;5003806;28;20229;-80
2022/03/13 01:40:02;;;;;;;10.07;9.77;;;1.20;94.60;;;;;;5004471;28;20316;-81
2022/03/13 01:42:29;;;;;;;9.90;9.60;;;1.10;94.50;;;;;;5004951;28;20245;-80
2022/03/13 01:44:57;;;;;;;9.90;9.60;;;1.00;94.50;;;;;;5003897;28;20240;-80
2022/03/13 01:47:27;;;;;;;10.00;9.70;;;0.90;94.70;;;;;;5004994;28;20256;-81
2022/03/13 01:49:55;;;;;;;10.10;9.80;;;0.80;94.70;;;;;;5004352;28;20225;-81
2022/03/13 01:52:27;;;;;;;10.13;9.83;;;0.70;94.80;;;;;;5004479;28;20245;-80
2022/03/13 01:54:56;;;;;;;9.80;9.50;;;0.70;94.70;;;;;;5003742;28;20264;-80
2022/03/13 01:57:25;;;;;;;10.10;9.80;;;0.70;94.60;;;;;;5003926;28;20232;-80
2022/03/13 01:59:56;;;;;;;9.97;9.67;;;0.60;94.80;;;;;;5004715;28;20221;-80
2022/03/13 02:02:28;;;;;;;9.87;9.57;;;0.70;95.00;;;;;;5005559;28;20744;-80
2022/03/13 02:04:57;;;;;;;9.97;9.67;;;0.70;95.00;;;;;;5004176;28;20233;-81
2022/03/13 02:07:28;;;;;;;9.87;9.57;;;0.70;94.60;;;;;;5004343;28;20237;-80
2022/03/13 02:09:56;;;;;;;9.90;9.60;;;0.80;94.50;;;;;;5003712;28;20232;-80
2022/03/13 02:12:26;;;;;;;9.93;9.63;;;0.90;94.40;;;;;;5003307;28;20288;-80
2022/03/13 02:14:54;;;;;;;10.00;9.70;;;0.90;94.40;;;;;;5003928;28;20240;-79
2022/03/13 02:17:29;;;;;;;10.00;9.70;;;0.90;94.50;;;;;;5003626;28;20232;-80
2022/03/13 02:19:57;;;;;;;9.87;9.57;;;0.90;94.30;;;;;;5002919;28;21053;-80
2022/03/13 02:22:25;;;;;;;9.80;9.50;;;0.80;94.40;;;;;;5004056;28;20288;-81
2022/03/13 02:24:55;;;;;;;9.70;9.40;;;0.80;94.70;;;;;;5003975;28;20246;-80
2022/03/13 02:27:28;;;;;;;9.87;9.57;;;0.80;94.80;;;;;;5004364;28;20229;-80
2022/03/13 02:29:55;;;;;;;9.77;9.47;;;0.80;94.70;;;;;;5003698;28;20225;-80
2022/03/13 02:32:23;;;;;;;10.00;9.70;;;0.80;94.80;;;;;;5003104;28;20241;-81
2022/03/13 02:34:51;;;;;;;9.80;9.50;;;0.80;94.80;;;;;;5008403;28;20225;-80
2022/03/13 02:37:36;;;;;;;9.80;9.50;;;0.80;94.70;;;;;;5008736;28;20237;-80
2022/03/13 02:40:07;;;;;;;9.90;9.60;;;0.80;94.80;;;;;;5004271;28;20217;-80
2022/03/13 02:42:35;;;;;;;9.90;9.60;;;0.90;95.00;;;;;;5003517;28;20728;-80
2022/03/13 02:45:03;;;;;;;9.80;9.50;;;0.80;95.70;;;;;;5002496;28;20240;-80
2022/03/13 02:47:31;;;;;;;9.83;9.53;;;0.80;96.80;;;;;;5004036;28;20241;-80
2022/03/13 02:49:59;;;;;;;9.60;9.30;;;0.80;96.30;;;;;;5003507;28;20324;-80
2022/03/13 02:52:26;;;;;;;10.03;9.73;;;0.70;96.80;;;;;;5003798;28;20233;-80
2022/03/13 02:54:54;;;;;;;9.73;9.43;;;0.60;97.00;;;;;;5003860;28;20292;-80
2022/03/13 02:57:23;;;;;;;9.80;9.50;;;0.50;97.40;;;;;;5002893;28;20233;-79
2022/03/13 02:59:51;;;;;;;9.80;9.50;;;0.20;96.70;;;;;;5002880;28;20244;-80
2022/03/13 03:02:19;;;;;;;10.10;9.80;;;-0.10;96.50;;;;;;5003443;28;20298;-80
2022/03/13 03:04:53;;;;;;;10.10;9.80;;;-0.20;96.70;;;;;;5003075;28;20232;-80
2022/03/13 03:07:21;;;;;;;10.10;9.80;;;-0.20;96.70;;;;;;5003517;28;20237;-80
2022/03/13 03:09:49;;;;;;;9.70;9.40;;;-0.20;96.50;;;;;;5002932;28;20261;-80
2022/03/13 03:12:18;;;;;;;10.00;9.70;;;-0.20;96.40;;;;;;5003608;28;20244;-80
2022/03/13 03:14:47;;;;;;;9.97;9.67;;;-0.20;96.10;;;;;;5003581;28;20248;-80
2022/03/13 03:17:15;;;;;;;9.80;9.50;;;-0.20;96.10;;;;;;5003017;28;20243;-79
2022/03/13 03:19:42;;;;;;;10.10;9.80;;;-0.10;96.20;;;;;;5002850;28;20224;-80
2022/03/13 03:22:10;;;;;;;9.80;9.50;;;-0.10;96.10;;;;;;5003694;28;20240;-80
2022/03/13 03:24:38;;;;;;;9.77;9.47;;;-0.10;96.00;;;;;;5011198;28;20287;-80
2022/03/13 03:27:06;;;;;;;9.97;9.67;;;-0.10;96.20;;;;;;5008853;28;20229;-80
2022/03/13 03:29:34;;;;;;;10.00;9.70;;;0.00;96.10;;;;;;5012238;28;20229;-80
2022/03/13 03:32:03;;;;;;;10.03;9.73;;;0.10;95.90;;;;;;5011442;28;20266;-80
2022/03/13 03:34:31;;;;;;;10.10;9.80;;;0.20;95.70;;;;;;5002364;28;20228;-81
2022/03/13 03:37:03;;;;;;;9.83;9.53;;;0.30;96.20;;;;;;5002455;28;20241;-79
2022/03/13 03:39:33;;;;;;;9.70;9.40;;;0.30;95.70;;;;;;5002761;28;20229;-80
2022/03/13 03:42:02;;;;;;;9.87;9.57;;;0.40;95.40;;;;;;5003404;28;20237;-80
2022/03/13 03:44:30;;;;;;;9.80;9.50;;;0.30;95.60;;;;;;5002677;28;20356;-81
2022/03/13 03:46:59;;;;;;;10.30;10.00;;;0.30;96.40;;;;;;5002009;28;20299;-80
2022/03/13 03:49:28;;;;;;;9.97;9.67;;;0.20;96.20;;;;;;5002502;28;20229;-80
2022/03/13 03:51:56;;;;;;;9.90;9.60;;;0.10;96.60;;;;;;5002693;28;20247;-81
2022/03/13 03:54:23;;;;;;;10.10;9.80;;;0.00;96.10;;;;;;5003338;28;20296;-80
2022/03/13 03:56:51;;;;;;;10.00;9.70;;;0.00;95.90;;;;;;5009039;28;20268;-79
2022/03/13 03:59:20;;;;;;;9.77;9.47;;;-0.20;96.10;;;;;;5014023;28;20220;-80
2022/03/13 04:01:48;;;;;;;10.10;9.80;;;-0.30;96.70;;;;;;5013516;28;20293;-80
2022/03/13 04:04:15;;;;;;;9.97;9.67;;;-0.40;96.70;;;;;;5014726;28;20267;-80
2022/03/13 04:06:45;;;;;;;10.00;9.70;;;-0.50;97.10;;;;;;5013598;28;20228;-79
2022/03/13 04:09:13;;;;;;;10.10;9.80;;;-0.60;97.10;;;;;;5014076;28;20248;-79
2022/03/13 04:11:41;;;;;;;9.67;9.37;;;-0.60;97.00;;;;;;5014498;28;20292;-80
2022/03/13 04:14:09;;;;;;;9.87;9.57;;;-0.60;96.70;;;;;;5014100;28;20260;-80
2022/03/13 04:16:38;;;;;;;9.93;9.63;;;-0.60;96.90;;;;;;5014043;28;20284;-80
2022/03/13 04:19:05;;;;;;;9.97;9.67;;;-0.60;97.10;;;;;;5014080;28;20240;-80
2022/03/13 04:21:34;;;;;;;9.60;9.30;;;-0.60;97.10;;;;;;5015111;28;20260;-79
2022/03/13 04:24:03;;;;;;;9.90;9.60;;;-0.50;96.80;;;;;;5014889;28;20241;-80
2022/03/13 04:26:31;;;;;;;9.97;9.67;;;-0.40;96.40;;;;;;5015147;28;20216;-80
2022/03/13 04:28:59;;;;;;;9.77;9.47;;;-0.40;96.50;;;;;;5012974;28;20217;-80
2022/03/13 04:31:27;;;;;;;10.00;9.70;;;-0.30;96.40;;;;;;5014995;28;20229;-80
2022/03/13 04:33:54;;;;;;;9.70;9.40;;;-0.30;96.40;;;;;;5015240;28;20238;-80
2022/03/13 04:36:23;;;;;;;9.70;9.40;;;-0.20;96.30;;;;;;5014985;28;20232;-80
2022/03/13 04:38:51;;;;;;;9.90;9.60;;;-0.10;96.20;;;;;;5012365;28;20285;-80
2022/03/13 04:41:20;;;;;;;9.80;9.50;;;0.00;96.30;;;;;;5010877;28;20232;-81
2022/03/13 04:43:49;;;;;;;9.70;9.40;;;0.00;96.40;;;;;;5013005;28;20240;-80
2022/03/13 04:46:17;;;;;;;9.80;9.50;;;0.00;97.30;;;;;;5011267;28;20229;-80
2022/03/13 04:48:45;;;;;;;9.47;9.17;;;0.00;99.50;;;;;;5010799;28;20216;-80
2022/03/13 04:51:13;;;;;;;9.87;9.57;;;0.00;99.90;;;;;;5012249;28;20245;-81
2022/03/13 04:53:41;;;;;;;9.67;9.37;;;-0.10;99.90;;;;;;5012317;28;20237;-80
2022/03/13 04:56:10;;;;;;;9.77;9.47;;;-0.20;99.90;;;;;;5011234;28;20220;-81
2022/03/13 04:58:39;;;;;;;9.63;9.33;;;-0.30;99.90;;;;;;5008472;28;20229;-81
2022/03/13 05:01:07;;;;;;;9.70;9.40;;;-0.40;99.90;;;;;;5006767;28;20259;-81
2022/03/13 05:03:35;;;;;;;9.63;9.33;;;-0.40;99.90;;;;;;5004166;28;20241;-80
2022/03/13 05:06:05;;;;;;;9.80;9.50;;;-0.50;99.90;;;;;;5012130;28;20259;-80
2022/03/13 05:08:33;;;;;;;9.63;9.33;;;-0.50;99.90;;;;;;5011742;28;20229;-80
2022/03/13 05:11:03;;;;;;;9.90;9.60;;;-0.50;99.90;;;;;;5010171;28;20259;-81
2022/03/13 05:13:30;;;;;;;9.93;9.63;;;-0.50;99.90;;;;;;5012690;28;20276;-81
2022/03/13 05:16:00;;;;;;;10.30;10.00;;;-0.50;99.90;;;;;;5012794;28;21146;-80
2022/03/13 05:18:29;;;;;;;10.40;10.10;;;-0.50;99.90;;;;;;5012092;28;20225;-80
2022/03/13 05:20:57;;;;;;;10.10;9.80;;;-0.50;99.90;;;;;;5013252;28;20272;-80
2022/03/13 05:23:25;;;;;;;10.60;10.30;;;-0.50;99.90;;;;;;5012124;28;20304;-80
2022/03/13 05:25:53;;;;;;;10.27;9.97;;;-0.60;99.90;;;;;;5010417;28;20252;-80
2022/03/13 05:28:20;;;;;;;10.27;9.97;;;-0.70;99.90;;;;;;5008795;28;20228;-80
2022/03/13 05:30:48;;;;;;;10.13;9.83;;;-0.80;99.90;;;;;;5007337;28;20240;-80
2022/03/13 05:33:18;;;;;;;10.43;10.13;;;-0.80;99.90;;;;;;5007595;28;20925;-80
2022/03/13 05:35:45;;;;;;;10.20;9.90;;;-0.90;99.90;;;;;;5007798;28;20276;-81
2022/03/13 05:38:13;;;;;;;10.17;9.87;;;-1.00;99.90;;;;;;5011149;28;20292;-80
2022/03/13 05:40:41;;;;;;;10.33;10.03;;;-1.00;99.90;;;;;;5008311;28;20236;-81
2022/03/13 05:43:14;;;;;;;10.20;9.90;;;-0.90;99.90;;;;;;5008235;28;20232;-79
2022/03/13 05:45:42;;;;;;;10.13;9.83;;;-0.90;99.90;;;;;;5010535;28;20236;-80
2022/03/13 05:48:15;;;;;;;10.40;10.10;;;-0.90;99.90;;;;;;5014673;28;20240;-81
2022/03/13 05:50:45;;;;;;;9.83;9.53;;;-0.90;99.90;;;;;;5021184;28;20245;-81
2022/03/13 05:53:13;;;;;;;10.00;9.70;;;-0.90;99.90;;;;;;5021219;28;20220;-80
2022/03/13 05:55:40;;;;;;;9.93;9.63;;;-0.90;99.90;;;;;;5021206;28;20251;-80
2022/03/13 05:58:08;;;;;;;9.77;9.47;;;-0.90;99.90;;;;;;5021121;28;20239;-80
2022/03/13 06:00:39;;;;;;;9.97;9.67;;;-0.80;99.90;;;;;;5019981;28;20232;-80
2022/03/13 06:03:08;;;;;;;9.83;9.53;;;-0.80;99.90;;;;;;5020439;28;20220;-80
2022/03/13 06:05:36;;;;;;;9.90;9.60;;;-0.70;99.90;;;;;;5020837;28;20232;-81
2022/03/13 06:08:06;;;;;;;9.80;9.50;;;-0.70;99.90;;;;;;5021311;28;20223;-81
2022/03/13 06:10:34;;;;;;;10.30;10.00;;;-0.60;99.90;;;;;;5020957;28;20407;-81
2022/03/13 06:13:01;;;;;;;9.73;9.43;;;-0.60;99.90;;;;;;5021777;28;20241;-83
2022/03/13 06:15:29;;;;;;;9.90;9.60;;;-0.50;99.90;;;;;;5021844;28;20233;-82
2022/03/13 06:17:58;;;;;;;10.30;10.00;;;-0.40;99.90;;;;;;5021486;28;20213;-81
2022/03/13 06:20:26;;;;;;;10.10;9.80;;;-0.40;99.90;;;;;;5021708;28;20224;-82
2022/03/13 06:22:54;;;;;;;9.87;9.57;;;-0.40;99.90;;;;;;5022199;28;20209;-81
2022/03/13 06:25:23;;;;;;;10.07;9.77;;;-0.40;99.90;;;;;;5020960;28;20239;-82
2022/03/13 06:27:51;;;;;;;10.00;9.70;;;-0.30;99.90;;;;;;5021505;28;20237;-81
2022/03/13 06:30:20;;;;;;;9.87;9.57;;;-0.30;99.90;;;;;;5021484;28;20213;-81
2022/03/13 06:32:49;;;;;;;9.80;9.50;;;-0.20;99.90;;;;;;5020549;28;20221;-80
2022/03/13 06:35:19;;;;;;;9.80;9.50;;;-0.20;99.90;;;;;;5020647;28;20244;-80
2022/03/13 06:37:48;;;;;;;9.80;9.50;;;-0.10;99.90;;;;;;5016380;28;20201;-80
2022/03/13 06:40:18;;;;;;;9.93;9.63;;;0.00;99.90;;;;;;5013678;28;20268;-81
2022/03/13 06:42:49;;;;;;;9.70;9.40;;;0.10;99.90;;;;;;5005524;28;20244;-82
2022/03/13 06:45:17;;;;;;;9.53;9.23;;;0.20;99.90;;;;;;5005549;28;20249;-82
2022/03/13 06:47:50;;;;;;;9.80;9.50;;;0.30;99.90;;;;;;5051722;23;20251;-85
2022/03/13 06:50:29;;;;;;;9.70;9.40;;;0.40;99.90;;;;;;5023625;28;20240;-88
2022/03/13 06:53:04;;;;;;;9.60;9.30;;;0.60;99.90;;;;;;5010506;28;20259;-85
2022/03/13 06:55:40;;;;;;;9.90;9.60;;;0.70;99.90;;;;;;5023018;28;20224;-88
2022/03/13 06:58:20;;;;;;;9.90;9.60;;;0.80;99.90;;;;;;5007159;28;20288;-84
2022/03/13 07:00:52;;;;;;;9.93;9.63;;;0.90;99.90;;;;;;5011825;28;20331;-85
2022/03/13 07:03:39;;;;;;;9.70;9.40;;;1.00;99.90;;;;;;5007894;28;20323;-85
2022/03/13 07:06:17;;;;;;;9.70;9.40;;;1.00;99.90;;;;;;5007251;28;20243;-85
2022/03/13 07:08:59;;;;;;;9.57;9.27;;;1.10;99.90;;;;;;5005851;28;20264;-86
2022/03/13 07:11:46;;;;;;;9.60;9.30;;;1.20;99.90;;;;;;5005242;28;20236;-85
2022/03/13 07:14:30;;;;;;;9.63;9.33;;;1.30;99.90;;;;;;5006245;28;20243;-84
2022/03/13 07:17:07;;;;;;;9.80;9.50;;;1.40;99.90;;;;;;5003944;28;20304;-85
2022/03/13 07:20:12;;;;;;;10.00;9.70;;;1.50;99.90;;;;;;5004161;28;20230;-85
2022/03/13 07:22:59;;;;;;;9.90;9.60;;;1.50;99.90;;;;;;5005124;28;20236;-85
2022/03/13 07:25:42;;;;;;;9.67;9.37;;;1.60;99.90;;;;;;5004068;28;20228;-84
2022/03/13 07:28:29;;;;;;;9.50;9.20;;;1.70;99.90;;;;;;5004549;28;20232;-85
2022/03/13 07:31:27;;;;;;;9.67;9.37;;;1.90;99.90;;;;;;5004737;28;20229;-85
2022/03/13 07:34:06;;;;;;;9.70;9.40;;;2.00;99.80;;;;;;5004416;28;20300;-85
2022/03/13 07:36:53;;;;;;;9.70;9.40;;;2.10;99.70;;;;;;5004532;28;20243;-85
2022/03/13 07:39:24;;;;;;;9.60;9.30;;;2.20;99.00;;;;;;5005211;28;20217;-85
2022/03/13 07:42:00;;;;;;;9.77;9.47;;;2.30;98.60;;;;;;5005285;28;20251;-85
2022/03/13 07:47:51;;;;;;;9.80;9.50;;;2.50;97.90;;;;;;5002621;28;20228;-84
2022/03/13 07:54:11;;;;;;;9.80;9.50;;;2.90;98.30;;;;;;4881951;29;20239;-85
2022/03/13 07:56:52;;;;;;;9.50;9.20;;;3.00;97.30;;;;;;4927390;29;20319;-84
2022/03/13 07:59:39;;;;;;;9.67;9.37;;;3.10;97.70;;;;;;4924711;29;20231;-83
2022/03/13 08:02:18;;;;;;;9.50;9.20;;;3.20;96.70;;;;;;4988726;28;20315;-83
2022/03/13 08:05:11;;;;;;;9.43;9.13;;;3.40;97.00;;;;;;5004684;28;20284;-84
2022/03/13 08:07:55;;;;;;;9.60;9.30;;;3.50;96.70;;;;;;5003913;28;20275;-84
2022/03/13 08:10:47;;;;;;;9.77;9.47;;;3.70;97.00;;;;;;5004350;28;20376;-82
2022/03/13 08:14:10;;;;;;;9.90;9.60;;;3.80;96.20;;;;;;5003866;28;20260;-85
2022/03/13 08:17:00;;;;;;;9.90;9.60;;;3.90;96.20;;;;;;5003840;28;20221;-84
2022/03/13 08:25:19;;;;;;;9.87;9.57;;;4.40;95.50;;;;;;5003053;28;20232;-83
2022/03/13 08:28:21;;;;;;;9.80;9.50;;;4.60;94.80;;;;;;5017146;28;20278;-83
2022/03/13 08:30:49;;;;;;;10.10;9.80;;;4.60;95.20;;;;;;5008246;28;20232;-83
2022/03/13 08:33:27;;;;;;;10.10;9.80;;;4.60;94.80;;;;;;5002267;28;20238;-84
2022/03/13 08:36:15;;;;;;;9.80;9.50;;;4.50;94.60;;;;;;5002437;28;20232;-83
2022/03/13 08:42:16;;;;;;;10.27;9.97;;;4.80;94.20;;;;;;4995110;28;20233;-83
2022/03/13 08:44:58;;;;;;;10.20;9.90;;;5.00;94.00;;;;;;5001557;28;20258;-83
2022/03/13 08:47:33;;;;;;;10.30;10.00;;;5.20;94.40;;;;;;5003601;28;20236;-83
2022/03/13 08:50:13;;;;;;;10.23;9.93;;;5.40;94.00;;;;;;5005723;28;20233;-83
2022/03/13 08:53:01;;;;;;;9.83;9.53;;;5.60;92.90;;;;;;5006481;28;20260;-84
2022/03/13 08:55:36;;;;;;;9.83;9.53;;;5.60;91.90;;;;;;5006034;28;20327;-83
2022/03/13 08:58:09;;;;;;;10.03;9.73;;;5.80;92.30;;;;;;5005582;28;20296;-81
2022/03/13 09:00:52;;;;;;;9.83;9.53;;;6.00;92.80;;;;;;5005626;28;20221;-83
2022/03/13 09:06:25;;;;;;;9.93;9.63;;;6.60;91.00;;;;;;5002769;28;20221;-83
2022/03/13 09:09:20;;;;;;;9.80;9.50;;;6.90;90.80;;;;;;5006600;28;20240;-83
2022/03/13 09:12:13;;;;;;;9.83;9.53;;;7.20;89.50;;;;;;4964863;28;20234;-83
2022/03/13 09:15:04;;;;;;;10.00;9.70;;;7.40;90.40;;;;;;5005760;28;20225;-82
2022/03/13 09:17:38;;;;;;;9.90;9.60;;;7.50;88.70;;;;;;5007660;28;20260;-83
2022/03/13 09:20:34;;;;;;;9.90;9.60;;;7.50;87.10;;;;;;5016963;28;20241;-83
2022/03/13 09:23:18;;;;;;;9.90;9.60;;;7.50;87.20;;;;;;5013515;28;20281;-81
2022/03/13 09:25:55;;;;;;;10.00;9.70;;;7.60;87.20;;;;;;5019246;28;20236;-84
2022/03/13 09:28:58;;;;;;;9.73;9.43;;;7.70;87.30;;;;;;5007295;28;20244;-84
2022/03/13 09:32:21;;;;;;;10.10;9.80;;;7.80;85.60;;;;;;5012447;28;20225;-85
2022/03/13 09:45:14;;;;;;;9.87;9.57;;;9.50;83.80;;;;;;4889181;29;20217;-83
2022/03/13 09:48:05;;;;;;;;;;;;;;;;;;;;;
2022/03/13 09:50:44;;;;;;;9.70;9.40;;;9.60;82.40;;;;;;5007135;28;20251;-85
2022/03/13 09:53:47;;;;;;;10.00;9.70;;;9.80;83.00;;;;;;5009156;28;20237;-84
2022/03/13 09:59:31;;;;;;;9.90;9.60;;;10.20;79.80;;;;;;4962766;28;20218;-83
2022/03/13 12:47:54;;;;;;;9.80;9.50;;;18.80;63.80;;;;;;3256532;23;20245;-79
2022/03/13 12:50:26;;;;;;;9.50;9.20;;;18.70;63.80;;;;;;4941713;29;20238;-79
2022/03/13 12:53:04;;;;;;;9.68;9.38;;;18.50;63.00;;;;;;4946492;29;20249;-79
2022/03/13 12:55:33;;;;;;;9.70;9.40;;;18.60;64.10;;;;;;4940890;29;20242;-79
2022/03/13 12:58:02;;;;;;;9.20;8.90;;;18.70;64.20;;;;;;4940855;29;20247;-79
2022/03/13 13:00:35;;;;;;;9.20;8.90;;;18.20;62.90;;;;;;4942374;29;20244;-79
2022/03/13 13:03:08;;;;;;;9.60;9.30;;;17.60;65.20;;;;;;4943649;29;20227;-79
2022/03/13 13:05:37;;;;;;;9.60;9.30;;;17.70;65.60;;;;;;4941897;29;20257;-79
2022/03/13 13:08:05;;;;;;;9.48;9.18;;;18.10;66.30;;;;;;4941739;29;20294;-79
2022/03/13 13:10:35;;;;;;;9.50;9.20;;;18.30;65.00;;;;;;4947462;29;20235;-78
2022/03/13 13:13:03;;;;;;;9.60;9.30;;;18.60;65.60;;;;;;4938941;29;20235;-79
2022/03/13 13:15:34;;;;;;;9.80;9.50;;;19.00;65.00;;;;;;4939736;29;20249;-78
2022/03/13 13:18:03;;;;;;;9.75;9.45;;;19.30;62.80;;;;;;4941073;29;20243;-79
2022/03/13 13:20:33;;;;;;;9.68;9.38;;;19.60;63.30;;;;;;4941937;29;20273;-78
2022/03/13 13:23:12;;;;;;;9.60;9.30;;;19.20;62.10;;;;;;4939350;29;20317;-79
2022/03/13 13:25:40;;;;;;;9.50;9.20;;;18.70;62.90;;;;;;4940560;29;20270;-79
2022/03/13 13:28:11;;;;;;;9.80;9.50;;;18.40;64.20;;;;;;4940902;29;20679;-78
2022/03/13 13:30:40;;;;;;;9.60;9.30;;;19.00;64.60;;;;;;4941559;29;20243;-80
2022/03/13 13:33:11;;;;;;;9.80;9.50;;;19.40;63.50;;;;;;4939069;29;20235;-79
2022/03/13 13:35:42;;;;;;;9.88;9.57;;;19.50;63.40;;;;;;4941623;29;20274;-80
2022/03/13 13:38:14;;;;;;;9.80;9.50;;;19.50;63.20;;;;;;4942614;29;20243;-80
2022/03/13 13:40:45;;;;;;;10.15;9.85;;;19.90;62.50;;;;;;4942263;29;20235;-80
2022/03/13 13:43:26;;;;;;;10.18;9.88;;;20.00;63.10;;;;;;4942324;29;20223;-80
2022/03/13 13:46:04;;;;;;;9.93;9.63;;;19.40;62.40;;;;;;4942154;29;20239;-79
2022/03/13 13:48:35;;;;;;;9.95;9.65;;;19.50;62.20;;;;;;4943441;29;20246;-80
2022/03/13 13:51:35;;;;;;;9.98;9.68;;;19.50;63.40;;;;;;4949849;29;20219;-78
2022/03/13 13:54:20;;;;;;;10.20;9.90;;;19.40;63.60;;;;;;4938580;29;20290;-80
2022/03/13 13:56:56;;;;;;;10.20;9.90;;;19.60;63.70;;;;;;4945480;29;20238;-80
2022/03/13 13:59:26;;;;;;;10.25;9.95;;;20.00;63.30;;;;;;4944068;29;20282;-79
2022/03/13 14:02:13;;;;;;;10.20;9.90;;;20.50;62.80;;;;;;4943152;29;20231;-81
2022/03/13 14:04:45;;;;;;;10.00;9.70;;;20.60;61.40;;;;;;4942514;29;20258;-78
2022/03/13 14:07:13;;;;;;;10.13;9.82;;;20.40;61.10;;;;;;4943851;29;20253;-81
2022/03/13 14:09:41;;;;;;;10.20;9.90;;;20.50;61.70;;;;;;4944540;29;20246;-79
2022/03/13 14:12:10;;;;;;;10.13;9.82;;;20.80;61.80;;;;;;4946653;29;20262;-80
2022/03/13 14:14:38;;;;;;;9.80;9.50;;;21.20;60.70;;;;;;4943711;29;20219;-79
2022/03/13 14:17:07;;;;;;;10.13;9.82;;;21.40;62.20;;;;;;4945089;29;20239;-80
2022/03/13 14:19:38;;;;;;;9.80;9.50;;;21.70;61.40;;;;;;4943748;29;20218;-81
2022/03/13 14:22:08;;;;;;;9.80;9.50;;;21.50;61.00;;;;;;4937887;28;20243;-80
2022/03/13 14:24:36;;;;;;;10.15;9.85;;;21.50;61.20;;;;;;4941515;29;20234;-81
2022/03/13 14:27:04;;;;;;;10.10;9.80;;;21.50;59.80;;;;;;4941722;29;20250;-81
2022/03/13 14:29:32;;;;;;;9.88;9.57;;;20.90;60.40;;;;;;4941934;29;20231;-80
2022/03/13 14:32:00;;;;;;;10.02;9.73;;;20.40;60.90;;;;;;4941588;29;20267;-80
2022/03/13 14:34:28;;;;;;;10.18;9.88;;;20.40;61.10;;;;;;4941216;29;20322;-80
2022/03/13 14:36:58;;;;;;;10.07;9.77;;;20.50;62.40;;;;;;4950410;29;20239;-80
2022/03/13 14:39:28;;;;;;;10.00;9.70;;;20.70;61.40;;;;;;4943425;29;20286;-79
2022/03/13 14:41:56;;;;;;;10.07;9.77;;;21.10;60.70;;;;;;4939952;29;20239;-79
2022/03/13 14:44:26;;;;;;;9.90;9.60;;;21.10;60.20;;;;;;4946800;29;20255;-78
2022/03/13 14:46:54;;;;;;;9.52;9.23;;;20.80;59.90;;;;;;4942559;29;20246;-78
2022/03/13 14:49:22;;;;;;;9.80;9.50;;;21.00;59.70;;;;;;4938107;29;20246;-79
2022/03/13 14:51:50;;;;;;;9.88;9.57;;;20.70;59.90;;;;;;4935201;29;20230;-79
2022/03/13 14:54:18;;;;;;;10.07;9.77;;;20.70;59.90;;;;;;4941074;29;20223;-78
2022/03/13 14:56:47;;;;;;;9.75;9.45;;;20.90;59.80;;;;;;4940283;29;20247;-78
2022/03/13 14:59:14;;;;;;;9.90;9.60;;;21.00;60.10;;;;;;4938933;29;20267;-79
2022/03/13 15:01:42;;;;;;;9.68;9.38;;;20.80;59.70;;;;;;4940075;29;20699;-79
2022/03/13 15:04:10;;;;;;;9.85;9.55;;;21.20;59.80;;;;;;4947318;29;20388;-79
2022/03/13 15:06:38;;;;;;;9.50;9.20;;;21.50;59.20;;;;;;4944574;29;20250;-79
2022/03/13 15:09:07;;;;;;;9.60;9.30;;;21.30;59.30;;;;;;4952147;29;20263;-79
2022/03/13 15:11:36;;;;;;;9.38;9.07;;;21.10;59.40;;;;;;4951630;29;20238;-79
2022/03/13 15:14:05;;;;;;;9.68;9.38;;;21.60;59.70;;;;;;4945233;29;20234;-79
2022/03/13 15:16:34;;;;;;;9.63;9.32;;;22.00;58.30;;;;;;4939179;29;20243;-79
2022/03/13 15:19:01;;;;;;;9.45;9.15;;;21.90;58.20;;;;;;4938617;29;20234;-79
2022/03/13 15:21:29;;;;;;;9.52;9.23;;;21.60;58.50;;;;;;4938157;29;20239;-78
2022/03/13 15:23:57;;;;;;;9.32;9.02;;;21.80;58.70;;;;;;4937418;29;20238;-78
2022/03/13 15:26:25;;;;;;;9.50;9.20;;;21.50;59.10;;;;;;4940286;29;20255;-79
2022/03/13 15:28:52;;;;;;;9.30;9.00;;;21.90;59.20;;;;;;4937658;29;20245;-80
2022/03/13 15:31:22;;;;;;;9.55;9.25;;;21.90;58.70;;;;;;4939446;29;20282;-78
2022/03/13 15:33:51;;;;;;;9.90;9.60;;;22.10;58.20;;;;;;4935807;29;20231;-78
2022/03/13 15:36:19;;;;;;;9.77;9.48;;;21.70;58.10;;;;;;4937874;29;20238;-78
2022/03/13 15:38:47;;;;;;;9.88;9.57;;;21.40;58.20;;;;;;4937412;29;20232;-78
2022/03/13 15:41:15;;;;;;;9.90;9.60;;;21.60;58.90;;;;;;4939963;29;20230;-79
2022/03/13 15:43:43;;;;;;;9.80;9.50;;;21.50;58.70;;;;;;4935808;29;20251;-79
2022/03/13 15:46:10;;;;;;;10.10;9.80;;;21.70;59.10;;;;;;4938822;29;20231;-79
2022/03/13 15:48:39;;;;;;;9.85;9.55;;;21.50;58.50;;;;;;4936830;29;20238;-78
2022/03/13 15:51:07;;;;;;;9.75;9.45;;;21.40;58.40;;;;;;4938467;29;20239;-78
2022/03/13 15:53:35;;;;;;;9.50;9.20;;;21.50;58.70;;;;;;4938480;29;20257;-80
2022/03/13 15:56:03;;;;;;;9.45;9.15;;;21.20;58.80;;;;;;4935900;29;20234;-79
2022/03/13 15:58:31;;;;;;;9.52;9.23;;;20.70;58.90;;;;;;4937657;29;20310;-78
2022/03/13 16:00:59;;;;;;;9.50;9.20;;;21.10;58.90;;;;;;4936610;29;20326;-79
2022/03/13 16:03:27;;;;;;;9.70;9.40;;;21.20;58.80;;;;;;4934090;28;20707;-79
2022/03/13 16:05:56;;;;;;;9.65;9.35;;;20.90;58.90;;;;;;4939430;29;20234;-78
2022/03/13 16:08:24;;;;;;;9.85;9.55;;;20.80;58.90;;;;;;4936199;29;20234;-78
2022/03/13 16:10:52;;;;;;;9.88;9.57;;;20.40;59.50;;;;;;4935671;29;20231;-80
2022/03/13 16:13:20;;;;;;;9.90;9.60;;;20.20;59.40;;;;;;4936434;29;20237;-78
2022/03/13 16:15:48;;;;;;;9.55;9.25;;;20.20;59.40;;;;;;4936050;29;20234;-78
2022/03/13 16:18:16;;;;;;;9.70;9.40;;;19.10;59.60;;;;;;4937882;29;20298;-78
2022/03/13 16:20:43;;;;;;;9.77;9.48;;;18.90;60.70;;;;;;4939150;29;20227;-78
2022/03/13 16:23:13;;;;;;;10.20;9.90;;;18.30;60.80;;;;;;4937766;29;20235;-79
2022/03/13 16:25:42;;;;;;;9.77;9.48;;;17.90;61.50;;;;;;4945823;29;20266;-78
2022/03/13 16:28:10;;;;;;;9.98;9.68;;;17.10;62.20;;;;;;4955584;29;20250;-78
2022/03/13 16:30:48;;;;;;;9.82;9.52;;;17.00;63.10;;;;;;4951244;28;20238;-78
2022/03/13 16:33:16;;;;;;;9.63;9.32;;;16.70;63.20;;;;;;4954483;29;20238;-78
2022/03/13 16:35:44;;;;;;;9.52;9.23;;;16.30;64.10;;;;;;4938766;29;20235;-79